Espaço - Ciências - Fenômenos Naturais
Meteógrafos Informações Meteorológicas em tempo real

Aeroporto de Congonhas

Histórico do Tempo
Temperatura atual: 23 graus 73 F    Umidade relativa: 73 %
Velocidade do vento: 03 nós 5 Km/h    Direção: 320 graus NW
Ajuste do altímetro ..: 1015 HPA
Visibilidade: Ótima    Tempo presente: Céu Limpo

Observação

Data Hora BRTTempo°CUmidadePressãoVentoVisib.
24/02 - 01:56   Céu Limpo 23° 73% 1015 Noroeste/5 km/h OK
23/02 - 23:56   Céu Limpo 23° 78% 1016 Norte-noroeste/9 km/h OK
23/02 - 22:56   Céu Limpo 23° 78% 1016 Noroeste/9 km/h OK
23/02 - 21:56   Quase sem nuvens 23° 78% 1017 Norte/5 km/h 9000
23/02 - 20:56   Trovoadas na vizinhança 23° 73% 1017 /3 km/h 8000
23/02 - 18:56   Trovoadas na vizinhança 29° 54% ND Norte-noroeste/16 km/h 9999
23/02 - 17:56   Trovoadas na vizinhança ND° ND% ND Norte-noroeste/16 km/h 9999
23/02 - 16:56   Parcialmente Nublado 30° 45% 1015 Noroeste/23 km/h 9999
23/02 - 14:56   Não Disponível 32° 40% 1015 Noroeste/25 km/h 9999
23/02 - 13:56   Céu Limpo 31° 46% 1017 Noroeste/25 km/h OK
23/02 - 10:56   Céu Limpo 27° 58% 1018 Norte-noroeste/18 km/h OK
23/02 - 09:56   Céu Limpo 26° 61% 1018 Norte/19 km/h OK
23/02 - 08:56   Céu Limpo 23° 78% 1018 Norte-nordeste/5 km/h OK
23/02 - 07:56   Céu Limpo 23° 78% 1018 Norte-nordeste/5 km/h OK
23/02 - 04:57   Céu Limpo 20° 88% 1017 Norte/7 km/h OK
23/02 - 03:56   Céu Limpo 21° 83% 1017 Nordeste/7 km/h OK
23/02 - 01:56   Céu Limpo 21° 88% 1018 Nordeste/7 km/h CAVO
23/02 - 00:57   Céu Limpo 21° 83% 1019 Nordeste/9 km/h OK
22/02 - 23:56   Céu Limpo 22° 83% 1019 Nordeste/5 km/h OK
22/02 - 22:56   Céu Limpo 22° 83% 1020 Nordeste/5 km/h CAVO
22/02 - 20:56   Chovendo fraco 22° 83% 1020 Norte-nordeste/10 km/h 9000
22/02 - 19:56   Chovendo fraco 22° 83% 1020 Norte-nordeste/10 km/h 9000
22/02 - 18:56   Chovendo fraco 22° 83% 1020 Norte/12 km/h 8000
22/02 - 17:56   Chuva fraca e trovoadas 21° 88% 1020 Norte/18 km/h 6000


Apolo11.com - Todos os direitos reservados - 2000 - 2019
Política de Privacidade   |     Termo de Uso e Licenciamento   |  -   Entre em Contato

"O melhor mentiroso é aquele que que faz a menor quantidade de mentira percorrer o caminho mais longo" - Samuel Butler